Aviation Digital Data Service (ADDS)

Output produced by METARs form (1854 UTC 18 June 2019)
found at http://www.aviationweather.gov/metar/data/
 
KAIT 181838Z AUTO 01007KT 10SM SCT027 SCT035 SCT065 19/13 A2994 RMK AO2
KAEL 181836Z AUTO 00000KT 10SM SCT042 21/12 A2996 RMK AO2
KAXN 181753Z AUTO 01007KT 10SM FEW034 BKN050 22/11 A2999 RMK AO2 SLP154 T02170106 10222 20144 56013
KAXN 181739Z 1818/1918 34008KT P6SM BKN050 
     FM190100 03004KT P6SM SCT070 
     FM190600 04003KT P6SM SKC 
     FM191500 09005KT P6SM FEW060 SCT250
       
KAQP 181831Z AUTO 33008KT 10SM SCT048 BKN060 22/09 A2997 RMK AO2
KAUM 181836Z AUTO 34003KT 10SM BKN044 23/11 A2996 RMK AO2
KBDE 181753Z AUTO 31008KT 10SM FEW038 FEW050 SCT085 20/12 A3000 RMK AO2 SLP162 T02000122 10206 20117 58008
KBJI 181836Z AUTO 01006KT 10SM SCT029 SCT038 BKN049 20/12 A2998 RMK AO2 T01950118
KBJI 181729Z 1818/1918 VRB04KT P6SM BKN045 
     FM182200 VRB04KT P6SM SCT080 
     FM191100 00000KT P6SM SCT050
       
KBBB 181836Z AUTO 36005KT 10SM BKN046 BKN050 21/11 A2998 RMK AO2
KFOZ 181836Z AUTO 36006KT 10SM SCT031 SCT047 SCT070 18/11 A3002 RMK AO2
KBRD 181753Z AUTO 33007KT 10SM BKN060 OVC070 20/14 A2997 RMK AO2 RAB17E41 SLP146 P0002 60003 T02000144 10200 20156 58009
KBRD 181728Z 1818/1918 32006KT P6SM BKN035 OVC050 
     FM190100 VRB03KT P6SM SCT050 BKN100 
     FM190900 VRB02KT 6SM BR SCT100 
     FM191300 00000KT P6SM SCT150
       
KCBG 181836Z AUTO 29005KT 10SM BKN050 BKN070 24/13 A2995 RMK AO2
KCNB 181836Z AUTO 30007KT 280V350 10SM SCT048 24/12 A2999 RMK AO2 T02350117
KCOQ 181836Z AUTO 00000KT 10SM BKN065 OVC090 18/11 A2995 RMK AO2
KCQM 181836Z AUTO 36005KT 10SM SCT028 BKN043 BKN050 18/12 A2996 RMK AO2
KCKN 181745Z AUTO 06007KT 10SM SCT050 21/09 A3000 RMK AO2
KDTL 181836Z AUTO 00000KT 10SM BKN029 OVC040 17/10 A3000 RMK AO2
KTOB 181836Z AUTO 31009KT 10SM SCT048 21/11 A2996 RMK AO2
KDLH 181755Z 16003KT 3SM R09/5500VP6000FT -RA FEW036 BKN050 OVC080 16/12 A2995 RMK AO2 RAE1657B50 SLP148 P0000 60009 T01610122 10178 20133 58003
KDLH 181728Z 1818/1918 VRB04KT P6SM VCSH SCT020 BKN060 
     FM182100 08007G16KT P6SM VCSH BKN060 
     FM190200 08007KT P6SM BKN060 
     FM190500 VRB03KT 3SM BR SCT005 BKN100 
     FM191300 VRB03KT P6SM SCT200
       
KDYT 181835Z AUTO 06005KT 10SM CLR 09/07 A2997 RMK AO2
KY63 181603Z AUTO 33006KT 10SM OVC021 17/13 A3001 RMK AO2 T01710130
KELO 181836Z AUTO 04006KT 10SM SCT020 BKN024 BKN030 17/12 A2996 RMK AO2
KEVM 181836Z AUTO 01005KT 10SM -RA SCT021 BKN042 OVC048 17/13 A2996 RMK AO2 T01680128
KFRM 181756Z AUTO VRB05KT 10SM CLR 21/11 A2998 RMK AO2 SLP153 T02110106 10211 20161 56011
KFFM 181836Z AUTO 35007KT 10SM BKN044 20/11 A2999 RMK AO2
KFSE 181836Z AUTO 06006KT 10SM SCT041 20/12 A2999 RMK AO2
KGYL 181836Z AUTO 27005KT 10SM SCT049 BKN060 23/10 A2995 RMK AO2 T02250100
KGHW 181836Z AUTO 34008KT 10SM SCT043 SCT050 BKN095 21/11 A2997 RMK AO2
KCKC 181836Z AUTO 13003KT 10SM -RA SCT050 16/11 A2996 RMK AO2
KGPZ 181756Z AUTO 28006KT 10SM FEW025 BKN043 BKN090 19/12 A2998 RMK AO2 SLP154 T01940122 10194 20128 58009
KGDB 181835Z AUTO 34005KT 10SM SCT048 BKN050 23/11 A2998 RMK AO2 T02320113
KHCO 181837Z AUTO 33003KT 10SM CLR 22/10 A2999 RMK AO2
KHIB 181753Z AUTO 32005KT 10SM SCT030 BKN041 OVC085 18/11 A2995 RMK AO2 SLP146 T01830111 10189 20094 58010
KHIB 181728Z 1818/1918 01006KT P6SM VCSH SCT020 BKN040 
     FM190200 VRB04KT P6SM BKN040 
     TEMPO 1908/1912 2SM BR 
     FM191300 00000KT P6SM BKN150
       
KHCD 181837Z AUTO 32006KT 10SM BKN050 22/12 A2997 RMK AO2 T02160117
KINL 181755Z AUTO VRB05KT 10SM OVC110 19/10 A2999 RMK AO2 SLP157 T01940100 10200 20111 58004
KINL 181728Z 1818/1918 03006KT P6SM SCT080 
     FM190100 VRB02KT P6SM SCT050 
     TEMPO 1908/1912 3SM BR 
     FM191200 00000KT P6SM FEW250
       
KMJQ 181835Z AUTO 00004KT 10SM SCT048 21/09 A2999 RMK AO2 PWINO
KLJF 181835Z AUTO 28006KT 10SM SCT040 SCT048 SCT060 24/13 A2996 RMK AO2
KLXL 181839Z AUTO 36006KT 10SM SCT035 BKN060 OVC080 20/11 A2996 RMK AO2
K14Y 181837Z AUTO 35006KT 10SM BKN036 BKN065 19/11 A2997 RMK AO2
KXVG 181836Z AUTO 02007KT 340V040 10SM SCT023 SCT030 18/13 A2996 RMK AO2
KLYV 181837Z AUTO 04007KT 10SM SCT050 21/08 A2999 RMK AO2
KDXX 181836Z AUTO 34008KT 10SM SCT048 24/11 A2997 RMK AO2
K3N8 181835Z AUTO 07006KT 10SM SCT033 BKN039 19/11 A2999 RMK AO2 T01870109
KMKT 181756Z AUTO 29008KT 10SM BKN044 21/11 A2997 RMK AO2 SLP149 T02060106 10206 20150 58011
KMKT 181739Z 1818/1918 32006KT P6SM BKN050 
     FM190100 35003KT P6SM SCT080 
     FM190600 04003KT P6SM SKC 
     FM191500 07006KT P6SM SCT250
       
KMML 181756Z AUTO VRB05KT 10SM BKN041 21/12 A2999 RMK AO2 SLP156 T02060117 10206 20128 56012
KHZX 181836Z AUTO 36005KT 10SM SCT037 BKN090 BKN120 21/11 A2995 RMK AO2
KLVN 181755Z AUTO 28008KT 10SM BKN060 23/12 A2995 RMK AO2
KANE 181845Z 31007KT 10SM BKN041 OVC070 22/11 A2994
KMIC 181753Z 30008KT 10SM FEW038 OVC060 22/11 A2994 RMK AO2 SLP136 T02170111 10217 20144 56011
KFCM 181753Z 27008KT 10SM FEW060 23/11 A2995 RMK AO2 SLP138 T02280111 10228 20150 58010
KMSP 181753Z 31008KT 10SM BKN060 BKN250 23/10 A2995 RMK AO2 SLP138 T02330100 10233 20156 57011
KMSP 181727Z 1818/1924 31010KT P6SM BKN060 
     FM190100 35004KT P6SM SCT070 
     FM190600 02004KT P6SM FEW250 
     FM191500 05007KT P6SM FEW060 SCT250
       
KMVE 181835Z AUTO 36009G15KT 10SM BKN049 BKN060 22/08 A2997 RMK AO2
KJKJ 181838Z AUTO 34005KT 10SM BKN040 20/11 A2999 RMK AO2
KMZH 181836Z AUTO 29003KT 10SM OVC090 20/12 A2993 RMK AO2
KJMR 181835Z AUTO 30005KT 10SM SCT055 SCT065 18/13 A2997 RMK AO2
KMOX 181835Z AUTO 33010KT 10SM BKN044 21/09 A2993 RMK AO2
KULM 181835Z AUTO 31004KT 10SM SCT040 21/12 A2996 RMK AO2
KOVL 181835Z AUTO 33007KT 290V010 10SM SCT048 BKN050 21/10 A2996 RMK AO2
KORB 181834Z AUTO 00000KT 10SM SCT024 SCT035 OVC040 17/11 A2995 RMK AO2
KVVV 181840Z AUTO 30008KT 10SM SCT050 22/11 A2997 RMK AO2
KOWA 181838Z AUTO 33005KT 10SM SCT047 SCT055 21/12 A2996 RMK AO2
KPKD 181753Z AUTO VRB06KT 10SM OVC031 18/10 A2998 RMK AO2 SLP152 T01780100 10194 20133 58009
KPEX 181836Z AUTO 36007KT 340V040 10SM SCT047 SCT060 22/11 A2996 RMK AO2 T02190107
KPWC 181836Z AUTO 01007KT 334V034 10SM SCT024 BKN033 18/12 A2999 RMK AO2
KPQN 181836Z AUTO 31003KT 10SM CLR 21/10 A3000 RMK AO2
KFKA 181836Z AUTO 28006KT 10SM CLR 21/13 A2996 RMK AO2 T02100134
KPNM 181836Z AUTO 35006KT 10SM SCT065 23/11 A2995 RMK AO2
KRGK 181837Z AUTO 29008KT 10SM CLR 24/04 A2993 RMK AO2
KRWF 181753Z AUTO A2997 RMK AO2 SLPNO 56013 PWINO $
KRWF 181830Z 1819/1918 33006KT P6SM BKN050 
     FM190000 35004KT P6SM SCT080 
     FM190600 04003KT P6SM SKC 
     FM191500 10005KT P6SM BKN050 AMD NOT SKED
       
KRST 181854Z 27006KT 10SM BKN046 22/12 A2995 RMK AO2 SLP139 T02170117
KRST 181733Z 1818/1918 31005KT P6SM BKN035 
     FM190000 35006KT P6SM BKN120 
     FM190700 VRB04KT P6SM SCT200 
     FM191500 04005KT P6SM BKN050
       
KROX 181846Z AUTO 33005KT 10SM CLR 23/08 A2998 RMK AO2
KROS 181836Z AUTO 35005KT 10SM SCT036 SCT042 OVC060 19/11 A2995 RMK AO2 T01900113
KSTC 181753Z 33009KT 10SM FEW033 21/11 A2996 RMK AO2 SLP153 T02110111 10211 20128 56012
KSTC 181739Z 1818/1918 33009KT P6SM BKN050 
     FM190000 VRB02KT P6SM SCT080 
     FM191500 06005KT P6SM SCT250
       
KJYG 181842Z AUTO 32004KT 10SM SCT046 23/12 A2996 RMK AO2
KSTP 181753Z 34006KT 10SM BKN047 OVC060 21/11 A2995 RMK AO2 SLP137 T02110111 10222 20150 57011
KD39 181836Z AUTO 33007KT 10SM SCT037 SCT046 SCT055 20/11 A2997 RMK AO2 T02020106
KBFW 181840Z AUTO 08005KT 10SM SCT095 16/10 A2994 RMK AO2
KDVP 181844Z AUTO 35005KT 10SM SCT042 SCT048 20/10 A3001 RMK AO2 T01980100
KSGS 181839Z AUTO 29006KT 10SM SCT049 BKN055 22/10 A2994 RMK AO2 T02170095
KSAZ 181840Z AUTO 32007KT 10SM SCT025 SCT050 BKN060 18/11 A2997 RMK AO2
KTVF 181756Z AUTO 04008G17KT 10SM FEW045 21/09 A3001 RMK AO2 SLP164 T02060089 10206 20133 58010
KTVF 181729Z 1818/1918 03007KT P6SM SCT045 
     FM182000 02006KT P6SM SCT080 
     FM182300 01005KT P6SM OVC180 
     FM191300 VRB04KT P6SM SCT250
       
KTKC 181759Z AUTO 31008KT 10SM SCT040 21/12 A2999 RMK AO2 TSNO
KTWM 181835Z AUTO 12004KT 10SM SCT075 17/12 A2994 RMK AO2
KADC 181755Z AUTO 35006KT 10SM OVC050 18/11 A2998 RMK AO2
KY49 181835Z AUTO 00000KT 10SM SCT026 SCT037 A2996 RMK AO2
KRRT 181839Z AUTO 11006KT 10SM CLR 21/12 A2999 RMK AO2
KACQ 181835Z AUTO 28004KT 10SM SCT043 22/12 A2997 RMK AO2
KETH 181831Z AUTO 30005KT 10SM SCT046 21/11 A2999 RMK AO2
KBDH 181836Z AUTO 31008KT 10SM SCT047 22/10 A2999 RMK AO2
KMWM 181836Z AUTO 35004KT 10SM SCT042 21/11 A2998 RMK AO2
KONA 181836Z AUTO 30005KT 10SM SCT046 BKN050 23/14 A2994 RMK AO2
KOTG 181756Z AUTO 02005G15KT 10SM FEW047 21/09 A3000 RMK AO2 SLP157 T02060094 10206 20150 56009